createdAt,value
2017-06-23T00:00:38.143Z,0
2017-06-23T00:01:47.036Z,0
2017-06-23T00:02:55.923Z,0
2017-06-23T00:04:04.818Z,0
2017-06-23T00:05:14.031Z,0
2017-06-23T00:06:23.249Z,0
2017-06-23T00:07:32.461Z,0
2017-06-23T00:08:41.348Z,0
2017-06-23T00:09:50.565Z,0
2017-06-23T00:10:59.812Z,0
2017-06-23T00:12:08.855Z,0
2017-06-23T00:13:18.419Z,0
2017-06-23T00:14:27.627Z,0
2017-06-23T00:15:36.512Z,0
2017-06-23T00:16:45.409Z,0
2017-06-23T00:17:54.297Z,0
2017-06-23T00:19:03.237Z,0
2017-06-23T00:20:12.455Z,0
2017-06-23T00:21:21.358Z,0
2017-06-23T00:22:30.251Z,0
2017-06-23T00:23:39.294Z,0
2017-06-23T00:24:48.182Z,0
2017-06-23T00:25:57.073Z,0
2017-06-23T00:27:06.288Z,0
2017-06-23T00:28:15.844Z,0
2017-06-23T00:29:24.880Z,0
2017-06-23T00:30:34.419Z,0
2017-06-23T00:31:43.310Z,0
2017-06-23T00:32:52.199Z,0
2017-06-23T00:34:01.089Z,0
2017-06-23T00:35:10.458Z,0
2017-06-23T00:36:19.672Z,0
2017-06-23T00:37:28.560Z,0
2017-06-23T00:38:37.446Z,0
2017-06-23T00:39:46.655Z,0
2017-06-23T00:40:56.022Z,0
2017-06-23T00:42:05.235Z,0
2017-06-23T00:43:14.154Z,0
2017-06-23T00:44:23.047Z,0
2017-06-23T00:45:32.266Z,0
2017-06-23T00:46:41.311Z,0
2017-06-23T00:47:50.202Z,0
2017-06-23T00:48:59.089Z,0
2017-06-23T00:50:08.628Z,0
2017-06-23T00:51:17.519Z,0
2017-06-23T00:52:26.459Z,0
2017-06-23T00:53:35.351Z,0
2017-06-23T00:54:44.242Z,0
2017-06-23T00:55:53.133Z,0
2017-06-23T00:57:02.350Z,0
2017-06-23T00:58:11.237Z,0
2017-06-23T00:59:20.128Z,0
2017-06-23T01:00:29.344Z,0
2017-06-23T01:01:38.879Z,0
2017-06-23T01:02:47.766Z,0
2017-06-23T01:03:56.805Z,0
2017-06-23T01:05:06.025Z,0
2017-06-23T01:06:14.918Z,0
2017-06-23T01:07:23.807Z,0
2017-06-23T01:08:32.699Z,0
2017-06-23T01:09:42.289Z,0
2017-06-23T01:10:51.181Z,0
2017-06-23T01:12:00.073Z,0
2017-06-23T01:13:09.289Z,0
2017-06-23T01:14:18.502Z,0
2017-06-23T01:15:27.440Z,0
2017-06-23T01:16:36.657Z,0
2017-06-23T01:17:46.196Z,0
2017-06-23T01:18:55.413Z,0
2017-06-23T01:20:04.308Z,0
2017-06-23T01:21:13.302Z,0
2017-06-23T01:22:22.843Z,0
2017-06-23T01:23:32.058Z,0
2017-06-23T01:24:40.948Z,0
2017-06-23T01:25:49.833Z,0
2017-06-23T01:26:59.101Z,0
2017-06-23T01:28:08.649Z,0
2017-06-23T01:29:17.868Z,0
2017-06-23T01:30:27.086Z,0
2017-06-23T01:31:35.975Z,0
2017-06-23T01:32:45.013Z,0
2017-06-23T01:33:54.551Z,0
2017-06-23T01:35:03.438Z,0
2017-06-23T01:36:12.328Z,0
2017-06-23T01:37:21.217Z,0
2017-06-23T01:38:30.109Z,0
2017-06-23T01:39:39.326Z,0
2017-06-23T01:40:48.223Z,0
2017-06-23T01:41:57.109Z,0
2017-06-23T01:43:06.324Z,0
2017-06-23T01:44:15.837Z,0
2017-06-23T01:45:25.059Z,0
2017-06-23T01:46:33.951Z,0
2017-06-23T01:47:42.841Z,0
2017-06-23T01:48:51.730Z,0
2017-06-23T01:50:00.721Z,0
2017-06-23T01:51:09.628Z,0
2017-06-23T01:52:19.170Z,0
2017-06-23T01:53:28.711Z,0
2017-06-23T01:54:37.601Z,0
2017-06-23T01:55:46.913Z,0
2017-06-23T01:56:56.126Z,0
2017-06-23T01:58:05.013Z,0
2017-06-23T01:59:14.554Z,0
2017-06-23T02:00:23.447Z,0
2017-06-23T02:01:32.820Z,0
2017-06-23T02:02:42.036Z,0
2017-06-23T02:03:51.281Z,0
2017-06-23T02:05:00.495Z,0
2017-06-23T02:06:09.713Z,0
2017-06-23T02:07:18.599Z,0
2017-06-23T02:08:27.809Z,0
2017-06-23T02:09:37.026Z,0
2017-06-23T02:10:46.567Z,0
2017-06-23T02:11:55.459Z,0
2017-06-23T02:13:04.405Z,0
2017-06-23T02:14:13.619Z,0
2017-06-23T02:15:22.509Z,0
2017-06-23T02:16:31.401Z,0
2017-06-23T02:17:40.290Z,0
2017-06-23T02:18:49.829Z,0
2017-06-23T02:19:58.719Z,0
2017-06-23T02:21:07.934Z,0
2017-06-23T02:22:17.150Z,0
2017-06-23T02:23:26.370Z,0
2017-06-23T02:24:35.260Z,0
2017-06-23T02:25:45.123Z,0
2017-06-23T02:26:54.338Z,0
2017-06-23T02:28:03.228Z,0
2017-06-23T02:29:12.116Z,0
2017-06-23T02:30:21.058Z,0
2017-06-23T02:31:30.605Z,0
2017-06-23T02:32:40.148Z,0
2017-06-23T02:33:49.040Z,0
2017-06-23T02:34:58.254Z,0
2017-06-23T02:36:07.471Z,0
2017-06-23T02:37:16.367Z,0
2017-06-23T02:38:25.256Z,0
2017-06-23T02:39:34.147Z,0
2017-06-23T02:40:43.046Z,0
2017-06-23T02:41:52.738Z,0
2017-06-23T02:43:01.642Z,0
2017-06-23T02:44:10.536Z,0
2017-06-23T02:45:19.430Z,0
2017-06-23T02:46:28.327Z,0
2017-06-23T02:47:37.373Z,0
2017-06-23T02:48:46.264Z,0
2017-06-23T02:49:55.806Z,0
2017-06-23T02:51:05.023Z,0
2017-06-23T02:52:13.914Z,0
2017-06-23T02:53:23.210Z,0
2017-06-23T02:54:32.101Z,0
2017-06-23T02:55:40.989Z,0
2017-06-23T02:56:49.880Z,0
2017-06-23T02:57:59.097Z,0
2017-06-23T02:59:08.289Z,0
2017-06-23T03:00:17.185Z,0
2017-06-23T03:01:26.723Z,5
2017-06-23T03:02:35.613Z,5
2017-06-23T03:03:44.507Z,5
2017-06-23T03:04:53.556Z,5
2017-06-23T03:06:02.799Z,0
2017-06-23T03:07:11.689Z,5
2017-06-23T03:08:20.583Z,10
2017-06-23T03:09:29.473Z,5
2017-06-23T03:10:38.902Z,5
2017-06-23T03:11:47.791Z,5
2017-06-23T03:12:56.682Z,5
2017-06-23T03:14:06.224Z,10
2017-06-23T03:15:15.438Z,15
2017-06-23T03:16:24.479Z,15
2017-06-23T03:17:33.367Z,20
2017-06-23T03:18:42.257Z,20
2017-06-23T03:19:51.147Z,20
2017-06-23T03:21:00.039Z,20
2017-06-23T03:22:09.414Z,20
2017-06-23T03:23:18.311Z,20
2017-06-23T03:24:27.210Z,20
2017-06-23T03:25:37.075Z,20
2017-06-23T03:26:45.965Z,20
2017-06-23T03:27:54.960Z,25
2017-06-23T03:29:03.847Z,25
2017-06-23T03:30:13.064Z,25
2017-06-23T03:31:21.952Z,30
2017-06-23T03:32:30.846Z,30
2017-06-23T03:33:39.896Z,30
2017-06-23T03:34:48.787Z,25
2017-06-23T03:35:57.731Z,30
2017-06-23T03:37:06.946Z,35
2017-06-23T03:38:16.485Z,35
2017-06-23T03:39:25.474Z,40
2017-06-23T03:40:34.363Z,45
2017-06-23T03:41:43.253Z,45
2017-06-23T03:42:52.150Z,45
2017-06-23T03:44:01.365Z,55
2017-06-23T03:45:10.418Z,55
2017-06-23T03:46:19.316Z,60
2017-06-23T03:47:28.532Z,60
2017-06-23T03:48:37.433Z,60
2017-06-23T03:49:46.323Z,65
2017-06-23T03:50:55.515Z,60
2017-06-23T03:52:04.413Z,65
2017-06-23T03:53:13.305Z,65
2017-06-23T03:54:22.192Z,70
2017-06-23T03:55:31.084Z,70
2017-06-23T03:56:40.788Z,75
2017-06-23T03:57:50.003Z,75
2017-06-23T03:58:59.221Z,75
2017-06-23T04:00:08.760Z,75
2017-06-23T04:01:17.978Z,75
2017-06-23T04:02:27.020Z,80
2017-06-23T04:03:35.907Z,75
2017-06-23T04:04:44.801Z,75
2017-06-23T04:05:53.688Z,70
2017-06-23T04:07:02.903Z,75
2017-06-23T04:08:11.893Z,70
2017-06-23T04:09:21.108Z,70
2017-06-23T04:10:30.323Z,65
2017-06-23T04:11:39.218Z,60
2017-06-23T04:12:48.457Z,55
2017-06-23T04:13:57.826Z,55
2017-06-23T04:15:06.724Z,60
2017-06-23T04:16:15.943Z,60
2017-06-23T04:17:24.831Z,65
2017-06-23T04:18:33.723Z,65
2017-06-23T04:19:42.615Z,70
2017-06-23T04:20:51.830Z,60
2017-06-23T04:22:01.044Z,60
2017-06-23T04:23:10.590Z,55
2017-06-23T04:24:19.489Z,45
2017-06-23T04:25:28.857Z,40
2017-06-23T04:26:37.749Z,40
2017-06-23T04:27:46.642Z,35
2017-06-23T04:28:55.540Z,35
2017-06-23T04:30:04.436Z,35
2017-06-23T04:31:13.803Z,35
2017-06-23T04:32:22.694Z,45
2017-06-23T04:33:31.914Z,40
2017-06-23T04:34:41.129Z,40
2017-06-23T04:35:50.022Z,35
2017-06-23T04:36:59.540Z,35
2017-06-23T04:38:08.437Z,35
2017-06-23T04:39:17.327Z,35
2017-06-23T04:40:26.542Z,50
2017-06-23T04:41:35.436Z,55
2017-06-23T04:42:44.330Z,55
2017-06-23T04:43:53.220Z,50
2017-06-23T04:45:02.110Z,60
2017-06-23T04:46:11.001Z,55
2017-06-23T04:47:19.890Z,50
2017-06-23T04:48:28.791Z,60
2017-06-23T04:49:38.011Z,50
2017-06-23T04:50:47.227Z,60
2017-06-23T04:51:56.455Z,50
2017-06-23T04:53:05.672Z,65
2017-06-23T04:54:14.937Z,60
2017-06-23T04:55:23.826Z,45
2017-06-23T04:56:32.722Z,55
2017-06-23T04:57:41.610Z,60
2017-06-23T04:58:50.497Z,65
2017-06-23T04:59:59.910Z,55
2017-06-23T05:01:08.802Z,65
2017-06-23T05:02:18.017Z,80
2017-06-23T05:03:26.912Z,65
2017-06-23T05:04:35.802Z,70
2017-06-23T05:05:44.795Z,60
2017-06-23T05:06:54.013Z,70
2017-06-23T05:08:03.260Z,75
2017-06-23T05:09:12.159Z,75
2017-06-23T05:10:21.064Z,65
2017-06-23T05:11:30.009Z,55
2017-06-23T05:12:39.230Z,80
2017-06-23T05:13:48.124Z,95
2017-06-23T05:14:57.023Z,85
2017-06-23T05:16:06.254Z,75
2017-06-23T05:17:15.144Z,55
2017-06-23T05:18:24.368Z,75
2017-06-23T05:19:33.261Z,70
2017-06-23T05:20:42.474Z,85
2017-06-23T05:21:51.374Z,90
2017-06-23T05:23:00.567Z,90
2017-06-23T05:24:09.784Z,80
2017-06-23T05:25:18.685Z,80
2017-06-23T05:26:27.581Z,50
2017-06-23T05:27:36.473Z,55
2017-06-23T05:28:45.466Z,55
2017-06-23T05:29:54.358Z,55
2017-06-23T05:31:03.934Z,70
2017-06-23T05:32:13.153Z,75
2017-06-23T05:33:22.045Z,70
2017-06-23T05:34:31.186Z,95
2017-06-23T05:35:40.080Z,110
2017-06-23T05:36:48.968Z,75
2017-06-23T05:37:57.856Z,65
2017-06-23T05:39:06.750Z,60
2017-06-23T05:40:15.790Z,65
2017-06-23T05:41:25.004Z,65
2017-06-23T05:42:33.892Z,65
2017-06-23T05:43:42.780Z,65
2017-06-23T05:44:51.669Z,60
2017-06-23T05:46:00.709Z,75
2017-06-23T05:47:09.925Z,70
2017-06-23T05:48:18.817Z,75
2017-06-23T05:49:27.708Z,90
2017-06-23T05:50:36.604Z,90
2017-06-23T05:51:45.748Z,100
2017-06-23T05:52:54.637Z,85
2017-06-23T05:54:03.854Z,85
2017-06-23T05:55:13.068Z,85
2017-06-23T05:56:21.962Z,95
2017-06-23T05:57:31.328Z,90
2017-06-23T05:58:40.222Z,90
2017-06-23T05:59:49.114Z,90
2017-06-23T06:00:58.005Z,100
2017-06-23T06:02:06.898Z,80
2017-06-23T06:03:16.048Z,90
2017-06-23T06:04:25.593Z,80
2017-06-23T06:05:34.806Z,80
2017-06-23T06:06:44.350Z,90
2017-06-23T06:07:53.293Z,60
2017-06-23T06:09:02.487Z,65
2017-06-23T06:10:11.704Z,75
2017-06-23T06:11:20.953Z,65
2017-06-23T06:12:30.172Z,70
2017-06-23T06:13:39.714Z,75
2017-06-23T06:14:48.932Z,95
2017-06-23T06:15:57.822Z,60
2017-06-23T06:17:06.724Z,70
2017-06-23T06:18:15.616Z,60
2017-06-23T06:19:24.830Z,70
2017-06-23T06:20:33.871Z,80
2017-06-23T06:21:42.766Z,65
2017-06-23T06:22:51.656Z,65
2017-06-23T06:24:00.555Z,95
2017-06-23T06:25:09.449Z,100
2017-06-23T06:26:18.342Z,90
2017-06-23T06:27:27.234Z,115
2017-06-23T06:28:36.128Z,90
2017-06-23T06:29:45.349Z,100
2017-06-23T06:30:54.566Z,105
2017-06-23T06:32:03.889Z,95
2017-06-23T06:33:13.431Z,120
2017-06-23T06:34:22.323Z,130
2017-06-23T06:35:31.218Z,150
2017-06-23T06:36:40.112Z,185
2017-06-23T06:37:49.162Z,265
2017-06-23T06:38:58.703Z,305
2017-06-23T06:40:07.919Z,340
2017-06-23T06:41:16.807Z,335
2017-06-23T06:42:25.700Z,350
2017-06-23T06:43:34.597Z,345
2017-06-23T06:44:43.489Z,340
2017-06-23T06:45:52.711Z,350
2017-06-23T06:47:01.931Z,340
2017-06-23T06:48:11.474Z,370
2017-06-23T06:49:20.792Z,380
2017-06-23T06:50:30.027Z,375
2017-06-23T06:51:38.917Z,395
2017-06-23T06:52:47.805Z,400
2017-06-23T06:53:56.695Z,390
2017-06-23T06:55:05.989Z,390
2017-06-23T06:56:14.881Z,375
2017-06-23T06:57:24.099Z,375
2017-06-23T06:58:32.989Z,390
2017-06-23T06:59:42.206Z,385
2017-06-23T07:00:51.728Z,390
2017-06-23T07:02:00.620Z,385
2017-06-23T07:03:09.516Z,360
2017-06-23T07:04:18.410Z,340
2017-06-23T07:05:27.626Z,280
2017-06-23T07:06:36.992Z,270
2017-06-23T07:07:45.884Z,310
2017-06-23T07:08:54.782Z,410
2017-06-23T07:10:03.676Z,325
2017-06-23T07:11:12.893Z,280
2017-06-23T07:12:21.942Z,255
2017-06-23T07:13:31.158Z,250
2017-06-23T07:14:40.049Z,245
2017-06-23T07:15:49.269Z,255
2017-06-23T07:16:58.487Z,260
2017-06-23T07:18:07.951Z,330
2017-06-23T07:19:16.839Z,345
2017-06-23T07:20:26.055Z,325
2017-06-23T07:21:34.947Z,295
2017-06-23T07:22:43.837Z,255
2017-06-23T07:23:52.831Z,210
2017-06-23T07:25:01.721Z,225
2017-06-23T07:26:11.300Z,255
2017-06-23T07:27:20.518Z,225
2017-06-23T07:28:29.410Z,235
2017-06-23T07:29:38.405Z,240
2017-06-23T07:30:47.293Z,255
2017-06-23T07:31:56.182Z,270
2017-06-23T07:33:05.075Z,295
2017-06-23T07:34:14.290Z,340
2017-06-23T07:35:23.656Z,365
2017-06-23T07:36:32.869Z,350
2017-06-23T07:37:41.760Z,355
2017-06-23T07:38:50.656Z,360
2017-06-23T07:39:59.555Z,400
2017-06-23T07:41:08.649Z,455
2017-06-23T07:42:17.538Z,435
2017-06-23T07:43:26.451Z,390
2017-06-23T07:44:35.351Z,360
2017-06-23T07:45:44.571Z,425
2017-06-23T07:46:53.619Z,485
2017-06-23T07:48:02.840Z,480
2017-06-23T07:49:12.056Z,570
2017-06-23T07:50:20.947Z,625
2017-06-23T07:51:30.166Z,585
2017-06-23T07:52:39.110Z,610
2017-06-23T07:53:48.329Z,595
2017-06-23T07:54:57.218Z,485
2017-06-23T07:56:06.110Z,475
2017-06-23T07:57:15.003Z,515
2017-06-23T07:58:24.250Z,415
2017-06-23T07:59:33.146Z,430
2017-06-23T08:00:42.045Z,395
2017-06-23T08:01:50.951Z,430
2017-06-23T08:02:59.849Z,425
2017-06-23T08:04:08.843Z,385
2017-06-23T08:05:17.738Z,360
2017-06-23T08:06:26.960Z,410
2017-06-23T08:07:36.286Z,405
2017-06-23T08:08:45.207Z,345
2017-06-23T08:09:54.154Z,385
2017-06-23T08:11:03.047Z,455
2017-06-23T08:12:11.950Z,545
2017-06-23T08:13:20.864Z,555
2017-06-23T08:14:29.788Z,545
2017-06-23T08:15:39.112Z,475
2017-06-23T08:16:48.335Z,390
2017-06-23T08:17:57.555Z,370
2017-06-23T08:19:06.450Z,370
2017-06-23T08:20:15.348Z,395
2017-06-23T08:21:24.242Z,430
2017-06-23T08:22:33.462Z,510
2017-06-23T08:23:42.356Z,530
2017-06-23T08:24:51.251Z,430
2017-06-23T08:26:00.146Z,395
2017-06-23T08:27:09.144Z,420
2017-06-23T08:28:18.362Z,490
2017-06-23T08:29:27.262Z,495
2017-06-23T08:30:36.153Z,480
2017-06-23T08:31:45.378Z,480
2017-06-23T08:32:54.424Z,495
2017-06-23T08:34:03.323Z,490
2017-06-23T08:35:12.221Z,490
2017-06-23T08:36:21.763Z,445
2017-06-23T08:37:30.659Z,415
2017-06-23T08:38:39.602Z,435
2017-06-23T08:39:48.497Z,485
2017-06-23T08:40:57.391Z,505
2017-06-23T08:42:06.943Z,525
2017-06-23T08:43:15.839Z,605
2017-06-23T08:44:24.742Z,670
2017-06-23T08:45:33.666Z,695
2017-06-23T08:46:42.567Z,710
2017-06-23T08:47:51.788Z,670
2017-06-23T08:49:01.013Z,655
2017-06-23T08:50:10.282Z,665
2017-06-23T08:51:19.502Z,650
2017-06-23T08:52:28.395Z,695
2017-06-23T08:53:37.287Z,680
2017-06-23T08:54:46.509Z,660
2017-06-23T08:55:55.454Z,635
2017-06-23T08:57:05.002Z,585
2017-06-23T08:58:14.226Z,525
2017-06-23T08:59:23.123Z,535
2017-06-23T09:00:32.032Z,540
2017-06-23T09:01:41.502Z,590
2017-06-23T09:02:50.721Z,565
2017-06-23T09:03:59.619Z,540
2017-06-23T09:05:09.498Z,515
2017-06-23T09:06:18.724Z,535
2017-06-23T09:07:27.772Z,565
2017-06-23T09:08:36.993Z,530
2017-06-23T09:09:45.886Z,550
2017-06-23T09:10:54.805Z,590
2017-06-23T09:12:04.028Z,595
2017-06-23T09:13:13.037Z,545
2017-06-23T09:14:22.255Z,510
2017-06-23T09:15:31.147Z,495
2017-06-23T09:16:40.044Z,405
2017-06-23T09:17:48.939Z,395
2017-06-23T09:18:58.310Z,525
2017-06-23T09:20:07.531Z,585
2017-06-23T09:21:16.422Z,585
2017-06-23T09:22:25.645Z,635
2017-06-23T09:23:34.870Z,685
2017-06-23T09:24:44.023Z,725
2017-06-23T09:25:53.244Z,755
2017-06-23T09:27:02.458Z,765
2017-06-23T09:28:11.678Z,675
2017-06-23T09:29:20.573Z,455
2017-06-23T09:30:29.527Z,470
2017-06-23T09:31:38.747Z,390
2017-06-23T09:32:47.969Z,385
2017-06-23T09:33:56.870Z,630
2017-06-23T09:35:06.101Z,805
2017-06-23T09:36:15.007Z,730
2017-06-23T09:37:23.904Z,645
2017-06-23T09:38:32.801Z,545
2017-06-23T09:39:41.721Z,495
2017-06-23T09:40:50.618Z,535
2017-06-23T09:41:59.570Z,545
2017-06-23T09:43:08.485Z,525
2017-06-23T09:44:17.745Z,535
2017-06-23T09:45:26.643Z,585
2017-06-23T09:46:35.546Z,575
2017-06-23T09:47:44.537Z,580
2017-06-23T09:48:53.433Z,630
2017-06-23T09:50:02.331Z,635
2017-06-23T09:51:11.547Z,560
2017-06-23T09:52:20.447Z,525
2017-06-23T09:53:29.637Z,600
2017-06-23T09:54:38.529Z,565
2017-06-23T09:55:47.434Z,580
2017-06-23T09:56:56.327Z,625
2017-06-23T09:58:05.546Z,635
2017-06-23T09:59:15.066Z,600
2017-06-23T10:00:24.286Z,645
2017-06-23T10:01:33.180Z,585
2017-06-23T10:02:42.400Z,520
2017-06-23T10:03:51.295Z,595
2017-06-23T10:05:00.241Z,505
2017-06-23T10:06:09.146Z,520
2017-06-23T10:07:18.376Z,630
2017-06-23T10:08:27.271Z,720
2017-06-23T10:09:36.161Z,755
2017-06-23T10:10:45.356Z,760
2017-06-23T10:11:54.253Z,730
2017-06-23T10:13:03.201Z,710
2017-06-23T10:14:12.418Z,625
2017-06-23T10:15:21.316Z,630
2017-06-23T10:16:30.611Z,675
2017-06-23T10:17:39.505Z,690
2017-06-23T10:18:48.721Z,710
2017-06-23T10:19:57.944Z,620
2017-06-23T10:21:06.853Z,655
2017-06-23T10:22:16.130Z,635
2017-06-23T10:23:25.676Z,620
2017-06-23T10:24:34.570Z,645
2017-06-23T10:25:43.468Z,630
2017-06-23T10:26:52.686Z,700
2017-06-23T10:28:01.830Z,680
2017-06-23T10:29:10.730Z,680
2017-06-23T10:30:19.629Z,690
2017-06-23T10:31:28.524Z,695
2017-06-23T10:32:37.746Z,715
2017-06-23T10:33:46.749Z,605
2017-06-23T10:34:55.643Z,665
2017-06-23T10:36:04.866Z,680
2017-06-23T10:37:14.412Z,670
2017-06-23T10:38:23.310Z,725
2017-06-23T10:39:32.782Z,700
2017-06-23T10:40:42.326Z,675
2017-06-23T10:41:51.221Z,635
2017-06-23T10:43:00.765Z,580
2017-06-23T10:44:09.987Z,500
2017-06-23T10:45:18.879Z,455
2017-06-23T10:46:27.876Z,465
2017-06-23T10:47:36.775Z,445
2017-06-23T10:48:45.994Z,425
2017-06-23T10:49:54.889Z,450
2017-06-23T10:51:03.786Z,525
2017-06-23T10:52:12.682Z,595
2017-06-23T10:53:21.906Z,590
2017-06-23T10:54:30.805Z,530
2017-06-23T10:55:40.673Z,520
2017-06-23T10:56:50.213Z,560
2017-06-23T10:57:59.430Z,620
2017-06-23T10:59:08.975Z,755
2017-06-23T11:00:18.206Z,720
2017-06-23T11:01:27.104Z,685
2017-06-23T11:02:36.150Z,775
2017-06-23T11:03:45.045Z,680
2017-06-23T11:04:54.270Z,690
2017-06-23T11:06:03.172Z,800
2017-06-23T11:07:12.390Z,845
2017-06-23T11:08:21.441Z,935
2017-06-23T11:09:30.663Z,905
2017-06-23T11:10:39.561Z,795
2017-06-23T11:11:48.782Z,785
2017-06-23T11:12:57.676Z,705
2017-06-23T11:14:06.822Z,710
2017-06-23T11:15:15.715Z,710
2017-06-23T11:16:24.612Z,690
2017-06-23T11:17:33.833Z,625
2017-06-23T11:18:42.729Z,680
2017-06-23T11:19:51.824Z,705
2017-06-23T11:21:01.050Z,735
2017-06-23T11:22:10.271Z,780
2017-06-23T11:23:19.169Z,810
2017-06-23T11:24:28.393Z,805
2017-06-23T11:25:37.343Z,860
2017-06-23T11:26:46.888Z,830
2017-06-23T11:27:55.789Z,925
2017-06-23T11:29:04.690Z,990
2017-06-23T11:30:13.591Z,965
2017-06-23T11:31:23.390Z,1015
2017-06-23T11:32:32.618Z,1065
2017-06-23T11:33:41.838Z,1060
2017-06-23T11:34:51.400Z,1070
2017-06-23T11:36:00.622Z,1035
2017-06-23T11:37:09.670Z,1045
2017-06-23T11:38:18.893Z,1100
2017-06-23T11:39:28.440Z,1115
2017-06-23T11:40:37.338Z,1110
2017-06-23T11:41:46.234Z,1095
2017-06-23T11:42:55.178Z,1130
2017-06-23T11:44:04.078Z,1125
2017-06-23T11:45:12.977Z,1140
2017-06-23T11:46:21.878Z,1135
2017-06-23T11:47:31.103Z,1120
2017-06-23T11:48:40.299Z,1070
2017-06-23T11:49:49.197Z,1095
2017-06-23T11:50:58.098Z,1040
2017-06-23T11:52:06.997Z,1050
2017-06-23T11:53:16.219Z,1105
2017-06-23T11:54:25.419Z,1055
2017-06-23T11:55:34.319Z,945
2017-06-23T11:56:43.217Z,845
2017-06-23T11:57:52.118Z,810
2017-06-23T11:59:01.343Z,820
2017-06-23T12:00:10.616Z,865
2017-06-23T12:01:19.513Z,905
2017-06-23T12:02:28.417Z,980
2017-06-23T12:03:37.638Z,945
2017-06-23T12:04:46.860Z,1030
2017-06-23T12:05:56.007Z,1095
2017-06-23T12:07:05.221Z,965
2017-06-23T12:08:14.447Z,935
2017-06-23T12:09:23.346Z,910
2017-06-23T12:10:32.570Z,980
2017-06-23T12:11:41.519Z,1515
2017-06-23T12:12:50.417Z,1710
2017-06-23T12:13:59.315Z,3005
2017-06-23T12:15:08.214Z,2755
2017-06-23T12:16:17.113Z,2505
2017-06-23T12:17:26.489Z,2605
2017-06-23T12:18:35.722Z,1920
2017-06-23T12:19:44.626Z,910
2017-06-23T12:20:53.525Z,895
2017-06-23T12:22:02.751Z,940
2017-06-23T12:23:12.344Z,965
2017-06-23T12:24:21.257Z,1275
2017-06-23T12:25:30.160Z,2065
2017-06-23T12:26:39.063Z,1625
2017-06-23T12:27:47.963Z,1360
2017-06-23T12:28:57.394Z,1445
2017-06-23T12:30:06.298Z,1920
2017-06-23T12:31:15.202Z,1755
2017-06-23T12:32:24.101Z,1455
2017-06-23T12:33:33.000Z,1050
2017-06-23T12:34:42.067Z,1095
2017-06-23T12:35:51.292Z,1175
2017-06-23T12:37:00.193Z,930
2017-06-23T12:38:09.099Z,940
2017-06-23T12:39:18.014Z,735
2017-06-23T12:40:27.407Z,750
2017-06-23T12:41:36.642Z,880
2017-06-23T12:42:45.874Z,840
2017-06-23T12:43:54.825Z,915
2017-06-23T12:45:04.049Z,925
2017-06-23T12:46:13.099Z,1045
2017-06-23T12:47:22.001Z,1185
2017-06-23T12:48:31.551Z,980
2017-06-23T12:49:40.452Z,1000
2017-06-23T12:50:49.678Z,965
2017-06-23T12:51:59.377Z,960
2017-06-23T12:53:08.609Z,680
2017-06-23T12:54:17.511Z,590
2017-06-23T12:55:26.411Z,475
2017-06-23T12:56:35.314Z,485
2017-06-23T12:57:44.383Z,365
2017-06-23T12:58:53.617Z,275
2017-06-23T13:00:02.841Z,285
2017-06-23T13:01:11.738Z,340
2017-06-23T13:02:20.967Z,345
2017-06-23T13:03:30.011Z,440
2017-06-23T13:04:38.910Z,545
2017-06-23T13:05:47.810Z,565
2017-06-23T13:06:57.040Z,510
2017-06-23T13:08:06.912Z,535
2017-06-23T13:09:15.807Z,625
2017-06-23T13:10:24.705Z,775
2017-06-23T13:11:33.605Z,845
2017-06-23T13:12:42.509Z,875
2017-06-23T13:13:51.407Z,1160
2017-06-23T13:15:00.777Z,995
2017-06-23T13:16:09.677Z,930
2017-06-23T13:17:18.578Z,905
2017-06-23T13:18:27.471Z,900
2017-06-23T13:19:36.365Z,1045
2017-06-23T13:20:45.563Z,1385
2017-06-23T13:21:54.469Z,1450
2017-06-23T13:23:03.700Z,1275
2017-06-23T13:24:12.597Z,1065
2017-06-23T13:25:21.495Z,1120
2017-06-23T13:26:30.770Z,1920
2017-06-23T13:27:39.665Z,1230
2017-06-23T13:28:48.911Z,1270
2017-06-23T13:29:57.819Z,1155
2017-06-23T13:31:07.044Z,1195
2017-06-23T13:32:16.096Z,1870
2017-06-23T13:33:25.316Z,2290
2017-06-23T13:34:34.215Z,3090
2017-06-23T13:35:43.435Z,1775
2017-06-23T13:36:52.983Z,1490
2017-06-23T13:38:02.033Z,1760
2017-06-23T13:39:11.582Z,805
2017-06-23T13:40:20.812Z,705
2017-06-23T13:41:29.710Z,825
2017-06-23T13:42:38.949Z,810
2017-06-23T13:43:48.328Z,835
2017-06-23T13:44:57.229Z,795
2017-06-23T13:46:06.127Z,775
2017-06-23T13:47:15.029Z,715
2017-06-23T13:48:23.930Z,660
2017-06-23T13:49:32.981Z,630
2017-06-23T13:50:42.532Z,600
2017-06-23T13:51:51.436Z,570
2017-06-23T13:53:00.333Z,540
2017-06-23T13:54:09.554Z,525
2017-06-23T13:55:18.872Z,520
2017-06-23T13:56:27.774Z,535
2017-06-23T13:57:36.678Z,570
2017-06-23T13:58:45.581Z,580
2017-06-23T13:59:54.803Z,605
2017-06-23T14:01:03.859Z,580
2017-06-23T14:02:12.760Z,535
2017-06-23T14:03:21.659Z,505
2017-06-23T14:04:31.220Z,495
2017-06-23T14:05:40.771Z,485
2017-06-23T14:06:50.145Z,535
2017-06-23T14:08:00.015Z,550
2017-06-23T14:09:08.925Z,605
2017-06-23T14:10:18.174Z,660
2017-06-23T14:11:27.068Z,685
2017-06-23T14:12:36.115Z,705
2017-06-23T14:13:45.014Z,695
2017-06-23T14:14:53.913Z,700
2017-06-23T14:16:02.810Z,735
2017-06-23T14:17:11.708Z,765
2017-06-23T14:18:21.234Z,895
2017-06-23T14:19:30.128Z,795
2017-06-23T14:20:39.029Z,765
2017-06-23T14:21:47.931Z,825
2017-06-23T14:22:56.834Z,835
2017-06-23T14:24:06.033Z,865
2017-06-23T14:25:14.930Z,785
2017-06-23T14:26:23.840Z,655
2017-06-23T14:27:32.737Z,590
2017-06-23T14:28:41.957Z,605
2017-06-23T14:29:51.181Z,635
2017-06-23T14:31:00.079Z,770
2017-06-23T14:32:09.299Z,835
2017-06-23T14:33:18.201Z,750
2017-06-23T14:34:27.100Z,730
2017-06-23T14:35:36.147Z,815
2017-06-23T14:36:45.369Z,985
2017-06-23T14:37:54.590Z,1265
2017-06-23T14:39:03.807Z,1080
2017-06-23T14:40:12.711Z,975
2017-06-23T14:41:21.866Z,925
2017-06-23T14:42:31.088Z,1195
2017-06-23T14:43:39.983Z,1085
2017-06-23T14:44:48.893Z,1370
2017-06-23T14:45:57.791Z,2795
2017-06-23T14:47:07.391Z,955
2017-06-23T14:48:16.291Z,670
2017-06-23T14:49:25.516Z,605
2017-06-23T14:50:34.414Z,635
2017-06-23T14:51:43.312Z,655
2017-06-23T14:52:52.411Z,715
2017-06-23T14:54:01.640Z,700
2017-06-23T14:55:10.869Z,760
2017-06-23T14:56:19.770Z,730
2017-06-23T14:57:28.664Z,655
2017-06-23T14:58:37.713Z,630
2017-06-23T14:59:46.617Z,680
2017-06-23T15:00:55.517Z,760
2017-06-23T15:02:04.738Z,650
2017-06-23T15:03:13.965Z,635
2017-06-23T15:04:23.285Z,620
2017-06-23T15:05:32.201Z,580
2017-06-23T15:06:41.105Z,595
2017-06-23T15:07:50.326Z,670
2017-06-23T15:08:59.227Z,705
2017-06-23T15:10:08.221Z,780
2017-06-23T15:11:17.124Z,610
2017-06-23T15:12:26.028Z,440
2017-06-23T15:13:35.254Z,345
2017-06-23T15:14:44.152Z,280
2017-06-23T15:15:53.527Z,250
2017-06-23T15:17:02.431Z,230
2017-06-23T15:18:11.331Z,210
2017-06-23T15:19:20.226Z,185
2017-06-23T15:20:29.449Z,185
2017-06-23T15:21:38.497Z,200
2017-06-23T15:22:47.397Z,230
2017-06-23T15:23:56.298Z,270
2017-06-23T15:25:05.201Z,285
2017-06-23T15:26:14.421Z,290
2017-06-23T15:27:23.365Z,275
2017-06-23T15:28:32.588Z,265
2017-06-23T15:29:41.486Z,270
2017-06-23T15:30:50.381Z,265
2017-06-23T15:31:59.274Z,260
2017-06-23T15:33:08.740Z,275
2017-06-23T15:34:17.957Z,325
2017-06-23T15:35:27.186Z,390
2017-06-23T15:36:36.082Z,470
2017-06-23T15:37:45.003Z,560
2017-06-23T15:38:54.045Z,620
2017-06-23T15:40:02.938Z,675
2017-06-23T15:41:11.832Z,715
2017-06-23T15:42:21.385Z,690
2017-06-23T15:43:30.278Z,615
2017-06-23T15:44:39.427Z,485
2017-06-23T15:45:48.646Z,425
2017-06-23T15:46:58.213Z,385
2017-06-23T15:48:07.110Z,365
2017-06-23T15:49:16.651Z,350
2017-06-23T15:50:25.701Z,310
2017-06-23T15:51:34.597Z,300
2017-06-23T15:52:43.490Z,320
2017-06-23T15:53:52.383Z,345
2017-06-23T15:55:01.282Z,365
2017-06-23T15:56:10.652Z,360
2017-06-23T15:57:20.519Z,340
2017-06-23T15:58:29.411Z,335
2017-06-23T15:59:38.307Z,350
2017-06-23T16:00:47.537Z,355
2017-06-23T16:01:57.232Z,355
2017-06-23T16:03:06.776Z,330
2017-06-23T16:04:15.994Z,330
2017-06-23T16:05:24.893Z,330
2017-06-23T16:06:33.788Z,290
2017-06-23T16:07:42.780Z,280